Time;durP1;ratioP1;P1;durP2;ratioP2;P2;SDS_P1;SDS_P2;PMS_P1;PMS_P2;Temp;Humidity;BMP_temperature;BMP_pressure;BME280_temperature;BME280_humidity;BME280_pressure;Samples;Min_cycle;Max_cycle;Signal;HPM_P1;HPM_P2
2021/06/03 00:02:13;;;;;;;1999.90;999.90;;;17.60;61.50;;;;;;5115430;28;20202;-54
2021/06/03 00:04:40;;;;;;;1999.90;999.90;;;17.60;63.40;;;;;;5115511;28;20190;-53
2021/06/03 00:07:10;;;;;;;1999.90;999.90;;;17.40;66.60;;;;;;5115354;28;20175;-54
2021/06/03 00:09:37;;;;;;;1999.90;999.90;;;17.20;66.80;;;;;;5309600;22;20321;-51
2021/06/03 00:12:06;;;;;;;1999.90;999.90;;;17.00;71.40;;;;;;5115162;28;20178;-56
2021/06/03 00:14:33;;;;;;;1999.90;999.90;;;17.00;73.30;;;;;;5115180;28;20167;-53
2021/06/03 00:17:02;;;;;;;1999.90;999.90;;;17.00;72.60;;;;;;5115157;28;20148;-54
2021/06/03 00:19:29;;;;;;;1999.90;999.90;;;16.90;79.00;;;;;;5115071;28;20220;-55
2021/06/03 00:21:56;;;;;;;1999.90;999.90;;;16.60;85.10;;;;;;5115034;28;20637;-51
2021/06/03 00:24:23;;;;;;;1999.90;999.90;;;16.40;82.80;;;;;;5114428;28;20621;-55
2021/06/03 00:26:50;;;;;;;1999.90;999.90;;;16.30;83.40;;;;;;5114559;28;20186;-51
2021/06/03 00:29:16;;;;;;;1999.90;999.90;;;16.50;81.60;;;;;;5115014;28;20167;-50
2021/06/03 00:31:44;;;;;;;1999.90;999.90;;;16.50;82.40;;;;;;5114957;28;20170;-52
2021/06/03 00:34:11;;;;;;;1999.90;999.90;;;16.60;82.20;;;;;;5114802;28;20224;-51
2021/06/03 00:36:38;;;;;;;1999.90;999.90;;;16.50;82.50;;;;;;5114684;28;20182;-52
2021/06/03 00:39:06;;;;;;;1999.90;999.90;;;16.50;82.40;;;;;;5114689;28;20163;-53
2021/06/03 00:41:34;;;;;;;1999.90;999.90;;;16.30;82.60;;;;;;5114558;28;20640;-55
2021/06/03 00:44:02;;;;;;;1999.90;999.90;;;16.20;84.60;;;;;;5114586;28;20163;-52
2021/06/03 00:46:29;;;;;;;1999.90;999.90;;;16.30;79.30;;;;;;5114538;28;20171;-52
2021/06/03 00:48:56;;;;;;;1999.90;999.90;;;16.80;74.90;;;;;;5114464;28;20163;-51
2021/06/03 00:51:24;;;;;;;1999.90;999.90;;;17.00;74.00;;;;;;5114465;28;20159;-55
2021/06/03 00:53:52;;;;;;;1999.90;999.90;;;16.90;76.90;;;;;;5114435;28;20171;-55
2021/06/03 00:56:19;;;;;;;1999.90;999.90;;;16.60;79.90;;;;;;5114441;28;20167;-54
2021/06/03 00:58:45;;;;;;;1999.90;999.90;;;16.40;84.10;;;;;;5114378;28;20624;-53
2021/06/03 01:01:13;;;;;;;1999.90;999.90;;;16.20;86.80;;;;;;5114188;28;20198;-54
2021/06/03 01:03:40;;;;;;;1999.90;999.90;;;15.90;88.60;;;;;;5114244;28;20187;-53
2021/06/03 01:06:09;;;;;;;1999.90;999.90;;;15.80;89.60;;;;;;5114151;28;20702;-52
2021/06/03 01:08:43;;;;;;;1999.90;999.90;;;15.70;89.00;;;;;;5095895;28;20681;-52
2021/06/03 01:11:31;;;;;;;1999.90;999.90;;;15.70;89.30;;;;;;5113892;28;20222;-55
2021/06/03 01:14:06;;;;;;;1999.90;999.90;;;15.80;89.10;;;;;;5113941;28;20159;-56
2021/06/03 01:16:35;;;;;;;1999.90;999.90;;;15.80;90.00;;;;;;5113995;28;20178;-51
2021/06/03 01:19:09;;;;;;;1999.90;999.90;;;16.20;86.50;;;;;;5113959;28;20168;-55
2021/06/03 01:21:41;;;;;;;1999.90;999.90;;;16.40;83.60;;;;;;5113843;28;20183;-53
2021/06/03 01:24:29;;;;;;;1999.90;999.90;;;16.50;83.70;;;;;;5113900;28;20185;-52
2021/06/03 01:27:01;;;;;;;1999.90;999.90;;;16.50;83.80;;;;;;5113901;28;20163;-51
2021/06/03 01:29:30;;;;;;;1999.90;999.90;;;16.40;84.60;;;;;;5113787;28;20175;-52
2021/06/03 01:31:58;;;;;;;1999.90;999.90;;;16.20;85.20;;;;;;5113630;28;20179;-53
2021/06/03 01:34:27;;;;;;;1999.90;999.90;;;16.10;87.50;;;;;;5113560;28;20167;-53
2021/06/03 01:36:54;;;;;;;1999.90;999.90;;;16.00;86.60;;;;;;5113275;28;20182;-51
2021/06/03 01:39:21;;;;;;;1999.90;999.90;;;15.90;87.60;;;;;;5113773;28;20190;-54
2021/06/03 01:41:48;;;;;;;1999.90;999.90;;;15.70;88.20;;;;;;5113654;28;20602;-52
2021/06/03 01:44:17;;;;;;;1999.90;999.90;;;15.70;89.90;;;;;;5113575;28;20215;-53
2021/06/03 01:46:43;;;;;;;1999.90;999.90;;;15.50;90.10;;;;;;5113470;28;20167;-51
2021/06/03 01:49:10;;;;;;;1999.90;999.90;;;15.50;90.90;;;;;;5113474;28;20159;-53
2021/06/03 01:51:38;;;;;;;1999.90;999.90;;;15.30;92.80;;;;;;5113474;28;20253;-53
2021/06/03 01:54:05;;;;;;;1999.90;999.90;;;15.20;94.10;;;;;;5113410;28;20637;-53
2021/06/03 01:56:32;;;;;;;1999.90;999.90;;;15.00;94.90;;;;;;5113408;28;20166;-54
2021/06/03 01:58:58;;;;;;;1999.90;999.90;;;14.80;95.40;;;;;;5113755;28;20571;-51
2021/06/03 02:01:25;;;;;;;1999.90;999.90;;;14.80;95.60;;;;;;5113363;28;20222;-51
2021/06/03 02:03:52;;;;;;;1999.90;999.90;;;14.60;95.90;;;;;;5113558;28;20159;-54
2021/06/03 02:06:19;;;;;;;1999.90;999.90;;;14.60;96.00;;;;;;5113347;28;20615;-55
2021/06/03 02:08:46;;;;;;;1999.90;999.90;;;14.60;96.40;;;;;;5113346;28;20163;-52
2021/06/03 02:11:13;;;;;;;1999.90;999.90;;;14.60;95.70;;;;;;5112879;28;20620;-52
2021/06/03 02:13:46;;;;;;;1999.90;999.90;;;14.70;95.50;;;;;;5113274;28;20167;-52
2021/06/03 02:16:17;;;;;;;1999.90;999.90;;;14.70;95.10;;;;;;5113320;28;20617;-53
2021/06/03 02:18:50;;;;;;;1999.90;999.90;;;14.80;94.90;;;;;;5113509;28;20603;-53
2021/06/03 02:21:18;;;;;;;1999.90;999.90;;;14.90;95.70;;;;;;5113163;28;20645;-52
2021/06/03 02:23:47;;;;;;;1999.90;999.90;;;14.80;96.00;;;;;;5113177;28;20170;-52
2021/06/03 02:26:14;;;;;;;1999.90;999.90;;;14.80;97.20;;;;;;5113143;28;20171;-51
2021/06/03 02:28:42;;;;;;;1999.90;999.90;;;14.70;98.00;;;;;;5113062;28;20521;-51
2021/06/03 02:31:10;;;;;;;1999.90;999.90;;;14.50;98.70;;;;;;5113072;28;20198;-51
2021/06/03 02:33:37;;;;;;;1999.90;999.90;;;14.60;97.40;;;;;;5113060;28;20163;-52
2021/06/03 02:36:05;;;;;;;1999.90;999.90;;;14.80;95.50;;;;;;5113051;28;20170;-50
2021/06/03 02:38:35;;;;;;;1999.90;999.90;;;15.00;93.30;;;;;;5112903;28;20167;-52
2021/06/03 02:41:06;;;;;;;1999.90;999.90;;;15.50;90.40;;;;;;5112875;28;20163;-51
2021/06/03 02:43:35;;;;;;;1999.90;999.90;;;15.90;89.10;;;;;;5113133;28;20242;-51
2021/06/03 02:46:02;;;;;;;1999.90;999.90;;;15.90;89.50;;;;;;5112878;28;20182;-51
2021/06/03 02:48:28;;;;;;;1999.90;999.90;;;15.90;89.60;;;;;;5114194;28;20684;-55
2021/06/03 02:50:56;;;;;;;1999.90;999.90;;;15.90;90.80;;;;;;5116809;28;20174;-54
2021/06/03 02:53:23;;;;;;;1999.90;999.90;;;15.70;92.20;;;;;;5116785;28;20182;-55
2021/06/03 02:55:50;;;;;;;1999.90;999.90;;;15.50;94.40;;;;;;5116756;28;20181;-53
2021/06/03 02:58:18;;;;;;;1999.90;999.90;;;15.30;94.90;;;;;;5116561;28;20165;-53
2021/06/03 03:00:46;;;;;;;1999.90;999.90;;;15.10;94.00;;;;;;5116669;28;20261;-51
2021/06/03 03:03:13;;;;;;;1999.90;999.90;;;15.50;90.30;;;;;;5116488;28;20237;-52
2021/06/03 03:05:41;;;;;;;1999.90;999.90;;;15.60;90.00;;;;;;5116529;28;20560;-51
2021/06/03 03:08:09;;;;;;;1999.90;999.90;;;15.90;87.70;;;;;;5116477;28;20175;-51
2021/06/03 03:10:38;;;;;;;1999.90;999.90;;;15.80;88.60;;;;;;5116285;28;20212;-51
2021/06/03 03:13:06;;;;;;;1999.90;999.90;;;15.70;90.10;;;;;;5116397;28;20170;-51
2021/06/03 03:15:35;;;;;;;1999.90;999.90;;;15.70;89.00;;;;;;5116342;28;20175;-54
2021/06/03 03:18:03;;;;;;;1999.90;999.90;;;15.70;87.00;;;;;;5116356;28;20167;-52
2021/06/03 03:20:31;;;;;;;1999.90;999.90;;;15.80;87.00;;;;;;5116337;28;20191;-51
2021/06/03 03:22:58;;;;;;;1999.90;999.90;;;15.90;84.00;;;;;;5116158;28;20207;-52
2021/06/03 03:25:27;;;;;;;1999.90;999.90;;;16.00;84.70;;;;;;5116107;28;20610;-54
2021/06/03 03:27:55;;;;;;;1999.90;999.90;;;16.00;85.60;;;;;;5116116;28;20167;-52
2021/06/03 03:30:26;;;;;;;1999.90;999.90;;;16.00;84.10;;;;;;5116069;28;20179;-51
2021/06/03 03:32:53;;;;;;;1999.90;999.90;;;16.10;84.70;;;;;;5116047;28;20162;-54
2021/06/03 03:35:20;;;;;;;1999.90;999.90;;;15.60;88.10;;;;;;5115983;28;20163;-51
2021/06/03 03:37:47;;;;;;;1999.90;999.90;;;16.00;83.10;;;;;;5115829;28;20585;-51
2021/06/03 03:40:21;;;;;;;1999.90;999.90;;;16.00;84.40;;;;;;5097630;28;20262;-51
2021/06/03 03:42:50;;;;;;;1999.90;999.90;;;16.10;84.20;;;;;;5115754;28;20205;-51
2021/06/03 03:45:19;;;;;;;1999.90;999.90;;;16.40;81.30;;;;;;5115602;28;20179;-50
2021/06/03 03:47:47;;;;;;;1999.90;999.90;;;16.40;80.40;;;;;;5115665;28;20621;-53
2021/06/03 03:50:15;;;;;;;1999.90;999.90;;;16.40;79.30;;;;;;5115574;28;20182;-56
2021/06/03 03:52:44;;;;;;;1999.90;999.90;;;16.50;79.00;;;;;;5115665;28;20199;-54
2021/06/03 03:55:13;;;;;;;1999.90;999.90;;;16.50;80.30;;;;;;5115601;28;20198;-52
2021/06/03 03:57:40;;;;;;;1999.90;999.90;;;16.60;76.60;;;;;;5115518;28;20251;-50
2021/06/03 04:00:18;;;;;;;1999.90;999.90;;;16.60;75.80;;;;;;5115297;28;20660;-53
2021/06/03 04:02:46;;;;;;;1999.90;999.90;;;16.50;74.30;;;;;;5115354;28;20187;-53
2021/06/03 04:05:13;;;;;;;1999.90;999.90;;;16.60;76.20;;;;;;5115345;28;20163;-52
2021/06/03 04:07:41;;;;;;;1999.90;999.90;;;16.50;75.50;;;;;;5115202;28;20175;-54
2021/06/03 04:10:17;;;;;;;1999.90;999.90;;;16.50;76.20;;;;;;5115038;28;20215;-52
2021/06/03 04:12:45;;;;;;;1999.90;999.90;;;16.40;77.40;;;;;;5115371;28;20230;-51
2021/06/03 04:15:13;;;;;;;1999.90;999.90;;;16.40;76.50;;;;;;5115200;28;20171;-50
2021/06/03 04:17:40;;;;;;;1999.90;999.90;;;16.40;76.50;;;;;;5115025;28;20175;-52
2021/06/03 04:20:10;;;;;;;1999.90;999.90;;;16.20;78.20;;;;;;5115161;28;20188;-51
2021/06/03 04:22:37;;;;;;;1999.90;999.90;;;16.00;79.00;;;;;;5114820;28;20354;-51
2021/06/03 04:25:06;;;;;;;1999.90;999.90;;;16.10;76.20;;;;;;5115030;28;20159;-53
2021/06/03 04:27:33;;;;;;;1999.90;999.90;;;16.20;75.80;;;;;;5115095;28;20750;-53
2021/06/03 04:30:00;;;;;;;1999.90;999.90;;;16.00;76.70;;;;;;5114849;28;20534;-51
2021/06/03 04:32:27;;;;;;;1999.90;999.90;;;16.20;75.50;;;;;;5114852;28;20167;-57
2021/06/03 04:34:55;;;;;;;1999.90;999.90;;;16.20;74.20;;;;;;5114707;28;20256;-51
2021/06/03 04:37:21;;;;;;;1999.90;999.90;;;16.40;75.90;;;;;;5114706;28;20166;-53
2021/06/03 04:39:49;;;;;;;1999.90;999.90;;;16.50;72.70;;;;;;5114690;28;20668;-55
2021/06/03 04:42:15;;;;;;;1999.90;999.90;;;16.50;72.90;;;;;;5114584;28;20202;-51
2021/06/03 04:44:42;;;;;;;1999.90;999.90;;;16.60;73.00;;;;;;5114607;28;20190;-53
2021/06/03 04:47:09;;;;;;;1999.90;999.90;;;16.70;68.70;;;;;;5114570;28;20198;-53
2021/06/03 04:49:36;;;;;;;1999.90;999.90;;;16.60;70.50;;;;;;5114638;28;20170;-55
2021/06/03 04:54:48;;;;;;;1999.90;999.90;;;16.50;72.30;;;;;;5114394;28;20205;-55
2021/06/03 04:57:15;;;;;;;1999.90;999.90;;;16.50;70.00;;;;;;5114213;28;20163;-53
2021/06/03 04:59:42;;;;;;;1999.90;999.90;;;16.40;72.40;;;;;;5114114;28;20163;-53
2021/06/03 05:02:09;;;;;;;1999.90;999.90;;;16.30;73.30;;;;;;5114220;28;20205;-51
2021/06/03 05:04:36;;;;;;;1999.90;999.90;;;16.20;72.10;;;;;;5114240;28;20522;-52
2021/06/03 05:07:03;;;;;;;1999.90;999.90;;;16.00;73.10;;;;;;5113977;28;20155;-53
2021/06/03 05:09:30;;;;;;;1999.90;999.90;;;16.10;71.20;;;;;;5114051;28;20163;-55
2021/06/03 05:11:56;;;;;;;1999.90;999.90;;;16.30;69.70;;;;;;5113377;28;20182;-52
2021/06/03 05:14:24;;;;;;;1999.90;999.90;;;16.50;66.40;;;;;;5113883;28;20170;-52
2021/06/03 05:16:50;;;;;;;1999.90;999.90;;;16.40;70.90;;;;;;5113883;28;20164;-55
2021/06/03 05:19:17;;;;;;;1999.90;999.90;;;16.30;71.00;;;;;;5113758;28;20167;-50
2021/06/03 05:21:44;;;;;;;1999.90;999.90;;;16.30;69.60;;;;;;5113546;28;20562;-57
2021/06/03 05:24:11;;;;;;;1999.90;999.90;;;16.30;67.60;;;;;;5113721;28;20250;-54
2021/06/03 05:26:37;;;;;;;1999.90;999.90;;;16.40;66.20;;;;;;5113590;28;20163;-50
2021/06/03 05:29:04;;;;;;;1999.90;999.90;;;16.60;63.40;;;;;;5113332;28;20218;-52
2021/06/03 05:31:31;;;;;;;1999.90;999.90;;;16.60;62.70;;;;;;5113083;28;20246;-51
2021/06/03 05:33:58;;;;;;;1999.90;999.90;;;16.70;62.40;;;;;;5113184;28;20205;-51
2021/06/03 05:36:25;;;;;;;1999.90;999.90;;;16.50;63.10;;;;;;5113177;28;20167;-55
2021/06/03 05:38:52;;;;;;;1999.90;999.90;;;16.50;63.00;;;;;;5113252;28;20175;-49
2021/06/03 05:41:18;;;;;;;1999.90;999.90;;;16.60;63.90;;;;;;5113094;28;20202;-50
2021/06/03 05:43:45;;;;;;;1999.90;999.90;;;16.50;63.50;;;;;;5112913;28;20171;-52
2021/06/03 05:46:12;;;;;;;1999.90;999.90;;;16.60;62.90;;;;;;5113267;28;20163;-53
2021/06/03 05:48:39;;;;;;;1999.90;999.90;;;16.80;59.70;;;;;;5113503;28;20175;-50
2021/06/03 05:51:06;;;;;;;1999.90;999.90;;;16.80;60.10;;;;;;5113025;28;20224;-51
2021/06/03 05:53:33;;;;;;;1999.90;999.90;;;16.90;58.60;;;;;;5112948;28;20167;-55
2021/06/03 05:56:00;;;;;;;1999.90;999.90;;;16.90;58.40;;;;;;5113119;28;20242;-51
2021/06/03 05:58:27;;;;;;;1999.90;999.90;;;16.90;58.50;;;;;;5112856;28;20163;-50
2021/06/03 06:00:53;;;;;;;1999.90;999.90;;;17.00;56.10;;;;;;5112964;28;20182;-59
2021/06/03 06:03:28;;;;;;;1999.90;999.90;;;17.00;59.30;;;;;;5112794;28;20233;-62
2021/06/03 06:08:40;;;;;;;1999.90;999.90;;;16.60;64.50;;;;;;5113162;28;20166;-43
2021/06/03 06:11:08;;;;;;;1999.90;999.90;;;16.80;63.10;;;;;;5109142;28;20217;-48
2021/06/03 06:13:35;;;;;;;1999.90;999.90;;;16.70;64.20;;;;;;5112601;28;20183;-55
2021/06/03 06:16:03;;;;;;;1999.90;999.90;;;16.80;61.50;;;;;;5111235;28;20163;-46
2021/06/03 06:18:30;;;;;;;1999.90;999.90;;;16.90;58.90;;;;;;5112445;28;20167;-47
2021/06/03 06:20:57;;;;;;;1999.90;999.90;;;16.80;59.70;;;;;;5112683;28;20175;-45
2021/06/03 06:23:24;;;;;;;1999.90;999.90;;;16.80;61.80;;;;;;5113589;28;20694;-47
2021/06/03 06:25:50;;;;;;;1999.90;999.90;;;16.70;67.30;;;;;;5116879;28;20164;-49
2021/06/03 06:28:17;;;;;;;1999.90;999.90;;;16.40;66.90;;;;;;5098483;28;20171;-46
2021/06/03 06:30:44;;;;;;;1999.90;999.90;;;16.90;71.40;;;;;;5116831;28;20166;-50
2021/06/03 06:33:14;;;;;;;1999.90;999.90;;;17.30;70.90;;;;;;5117027;28;20170;-48
2021/06/03 06:35:42;;;;;;;1999.90;999.90;;;17.40;68.00;;;;;;5116574;28;20179;-55
2021/06/03 06:38:09;;;;;;;1999.90;999.90;;;17.20;70.70;;;;;;5116433;28;20183;-58
2021/06/03 06:40:35;;;;;;;1999.90;999.90;;;17.10;65.90;;;;;;5116275;28;20178;-54
2021/06/03 06:43:02;;;;;;;1999.90;999.90;;;17.20;69.20;;;;;;5116005;28;20199;-43
2021/06/03 06:45:31;;;;;;;1999.90;999.90;;;17.40;68.10;;;;;;5116012;28;20166;-45
2021/06/03 06:47:58;;;;;;;1999.90;999.90;;;17.30;66.60;;;;;;5116169;28;20171;-50
2021/06/03 06:50:26;;;;;;;1999.90;999.90;;;17.50;73.40;;;;;;5116082;28;20163;-55
2021/06/03 06:52:53;;;;;;;1999.90;999.90;;;17.70;65.00;;;;;;5116119;28;20179;-54
2021/06/03 06:55:21;;;;;;;1999.90;999.90;;;17.50;58.40;;;;;;5115927;28;20241;-59
2021/06/03 06:57:49;;;;;;;1999.90;999.90;;;17.50;59.70;;;;;;5116236;28;20167;-57
2021/06/03 07:00:16;;;;;;;1999.90;999.90;;;17.50;54.60;;;;;;5116283;28;20606;-56
2021/06/03 07:02:43;;;;;;;1999.90;999.90;;;17.40;55.30;;;;;;5115791;28;20691;-49
2021/06/03 07:05:10;;;;;;;1999.90;999.90;;;17.60;58.90;;;;;;5115970;28;20187;-56
2021/06/03 07:07:37;;;;;;;1999.90;999.90;;;17.50;59.40;;;;;;5116159;28;20179;-50
2021/06/03 07:10:06;;;;;;;1999.90;999.90;;;17.40;59.60;;;;;;5116040;28;20168;-57
2021/06/03 07:12:33;;;;;;;1999.90;999.90;;;17.40;56.50;;;;;;5116020;28;20242;-52
2021/06/03 07:15:01;;;;;;;1999.90;999.90;;;17.40;58.00;;;;;;5115875;28;20549;-48
2021/06/03 07:17:28;;;;;;;1999.90;999.90;;;17.50;57.00;;;;;;5115912;28;20250;-49
2021/06/03 07:19:54;;;;;;;1999.90;999.90;;;17.60;56.30;;;;;;5115450;28;20163;-52
2021/06/03 07:22:21;;;;;;;1999.90;999.90;;;17.60;55.80;;;;;;5115681;28;20203;-58
2021/06/03 07:24:48;;;;;;;1999.90;999.90;;;17.60;58.20;;;;;;5115740;28;20174;-46
2021/06/03 07:27:15;;;;;;;1999.90;999.90;;;17.70;59.50;;;;;;5115763;28;20204;-52
2021/06/03 07:29:42;;;;;;;1999.90;999.90;;;17.80;57.90;;;;;;5115513;28;20171;-47
2021/06/03 07:32:09;;;;;;;1999.90;999.90;;;17.90;57.90;;;;;;5115606;28;20181;-46
2021/06/03 07:34:36;;;;;;;1999.90;999.90;;;17.90;57.70;;;;;;5115093;28;20248;-46
2021/06/03 07:37:03;;;;;;;1999.90;999.90;;;17.90;58.10;;;;;;5115498;28;20179;-59
2021/06/03 07:39:30;;;;;;;1999.90;999.90;;;18.00;59.90;;;;;;5115555;28;20155;-43
2021/06/03 07:41:57;;;;;;;1999.90;999.90;;;18.10;60.30;;;;;;5115236;28;20289;-46
2021/06/03 07:44:23;;;;;;;1999.90;999.90;;;18.20;62.20;;;;;;5115404;28;20216;-45
2021/06/03 07:46:50;;;;;;;1999.90;999.90;;;18.10;61.20;;;;;;5115582;28;20224;-55
2021/06/03 07:49:17;;;;;;;1999.90;999.90;;;18.10;60.20;;;;;;5115273;28;20159;-50
2021/06/03 07:51:44;;;;;;;1999.90;999.90;;;18.10;58.20;;;;;;5115186;28;20635;-47
2021/06/03 07:54:12;;;;;;;1999.90;999.90;;;18.10;60.90;;;;;;5115276;28;20195;-47
2021/06/03 07:56:39;;;;;;;1999.90;999.90;;;18.20;59.40;;;;;;5115267;28;20167;-51
2021/06/03 07:59:06;;;;;;;1999.90;999.90;;;18.30;59.00;;;;;;5114924;28;20167;-56
2021/06/03 08:01:33;;;;;;;1999.90;999.90;;;18.40;59.30;;;;;;5114984;28;20286;-60
2021/06/03 08:04:00;;;;;;;1999.90;999.90;;;18.40;57.70;;;;;;5115086;28;20579;-54
2021/06/03 08:06:27;;;;;;;1999.90;999.90;;;18.50;57.10;;;;;;5115473;28;20512;-53
2021/06/03 08:08:54;;;;;;;1999.90;999.90;;;18.50;60.70;;;;;;5115650;28;20624;-53
2021/06/03 08:11:20;;;;;;;1999.90;999.90;;;18.50;62.50;;;;;;5114774;28;20207;-48
2021/06/03 08:13:47;;;;;;;1999.90;999.90;;;18.50;55.80;;;;;;5114832;28;20171;-63
2021/06/03 08:16:14;;;;;;;1999.90;999.90;;;18.50;55.50;;;;;;5114871;28;20163;-61
2021/06/03 08:18:41;;;;;;;1999.90;999.90;;;18.50;56.10;;;;;;5114727;28;20178;-56
2021/06/03 08:21:09;;;;;;;1999.90;999.90;;;18.60;56.00;;;;;;5114648;28;20159;-62
2021/06/03 08:23:40;;;;;;;1999.90;999.90;;;18.60;56.20;;;;;;5114677;28;20175;-50
2021/06/03 08:26:07;;;;;;;1999.90;999.90;;;18.60;57.30;;;;;;5114509;28;20179;-47
2021/06/03 08:28:34;;;;;;;1999.90;999.90;;;18.60;59.90;;;;;;5114647;28;20213;-52
2021/06/03 08:31:01;;;;;;;1999.90;999.90;;;18.80;63.60;;;;;;5114707;28;20173;-48
2021/06/03 08:33:29;;;;;;;1999.90;999.90;;;18.90;58.30;;;;;;5114557;28;20613;-49
2021/06/03 08:35:56;;;;;;;1999.90;999.90;;;19.10;52.90;;;;;;5114613;28;20229;-55
2021/06/03 08:38:24;;;;;;;1999.90;999.90;;;19.30;52.30;;;;;;5114688;28;20197;-61
2021/06/03 08:40:58;;;;;;;1999.90;999.90;;;19.30;49.80;;;;;;5114439;28;20253;-55
2021/06/03 08:43:31;;;;;;;1999.90;999.90;;;19.40;51.10;;;;;;5114445;28;20201;-51
2021/06/03 08:46:00;;;;;;;1999.90;999.90;;;19.30;52.80;;;;;;5113839;28;20258;-59
2021/06/03 08:48:27;;;;;;;1999.90;999.90;;;19.40;51.90;;;;;;5114667;28;20190;-60
2021/06/03 08:51:01;;;;;;;1999.90;999.90;;;19.40;52.80;;;;;;5114386;28;20617;-50
2021/06/03 08:53:28;;;;;;;1999.90;999.90;;;19.50;51.10;;;;;;5114752;28;20150;-47
2021/06/03 08:56:14;;;;;;;1999.90;999.90;;;19.60;53.40;;;;;;5114324;28;20204;-60
2021/06/03 08:58:43;;;;;;;1999.90;999.90;;;19.70;50.40;;;;;;5096223;28;20207;-50
2021/06/03 09:01:11;;;;;;;1999.90;999.90;;;19.70;48.00;;;;;;5113996;28;20171;-51
2021/06/03 09:03:38;;;;;;;1999.90;999.90;;;20.00;52.00;;;;;;5113744;28;20589;-54
2021/06/03 09:06:06;;;;;;;1999.90;999.90;;;20.00;50.10;;;;;;5113718;28;20191;-46
2021/06/03 09:08:38;;;;;;;1999.90;999.90;;;20.00;48.00;;;;;;5113921;28;20167;-54
2021/06/03 09:11:11;;;;;;;1999.90;999.90;;;19.90;48.00;;;;;;5113401;28;20582;-46
2021/06/03 09:13:43;;;;;;;1999.90;999.90;;;19.90;47.90;;;;;;5095873;28;20249;-47
2021/06/03 09:16:09;;;;;;;1999.90;999.90;;;20.10;50.90;;;;;;5113390;28;20164;-58
2021/06/03 09:18:48;;;;;;;1999.90;999.90;;;20.00;51.80;;;;;;5113403;28;20167;-52
2021/06/03 09:21:29;;;;;;;1999.90;999.90;;;20.10;50.10;;;;;;5113247;28;20507;-47
2021/06/03 09:24:10;;;;;;;1999.90;999.90;;;20.20;50.20;;;;;;5113497;28;20163;-49
2021/06/03 09:26:52;;;;;;;1999.90;999.90;;;20.10;50.90;;;;;;5113333;28;20566;-41
2021/06/03 09:29:23;;;;;;;1999.90;999.90;;;20.20;49.70;;;;;;5113533;28;20148;-50
2021/06/03 09:31:51;;;;;;;1999.90;999.90;;;20.30;48.40;;;;;;5113725;28;20170;-55
2021/06/03 09:34:22;;;;;;;1999.90;999.90;;;20.20;49.40;;;;;;5113462;28;20617;-49
2021/06/03 09:36:54;;;;;;;1999.90;999.90;;;20.30;50.10;;;;;;5113325;28;20163;-48
2021/06/03 09:39:22;;;;;;;1999.90;999.90;;;20.30;48.10;;;;;;5113246;28;20167;-52
2021/06/03 09:42:00;;;;;;;1999.90;999.90;;;20.50;47.90;;;;;;5112967;28;20259;-50
2021/06/03 09:44:38;;;;;;;1999.90;999.90;;;20.50;47.10;;;;;;5113150;28;20167;-55
2021/06/03 09:47:11;;;;;;;1999.90;999.90;;;20.50;48.40;;;;;;5113196;28;20640;-45
2021/06/03 09:49:40;;;;;;;1999.90;999.90;;;20.60;47.60;;;;;;5112989;28;20223;-45
2021/06/03 09:52:15;;;;;;;1999.90;999.90;;;20.50;46.70;;;;;;5112652;28;20170;-48
2021/06/03 09:54:49;;;;;;;1999.90;999.90;;;20.60;48.40;;;;;;5113077;28;20155;-46
2021/06/03 09:57:16;;;;;;;1999.90;999.90;;;20.60;48.80;;;;;;5112980;28;20588;-50
2021/06/03 09:59:45;;;;;;;1999.90;999.90;;;20.60;47.30;;;;;;5113210;28;20550;-52
2021/06/03 10:02:21;;;;;;;1999.90;999.90;;;20.60;47.80;;;;;;5113136;28;20190;-52
2021/06/03 10:04:55;;;;;;;1999.90;999.90;;;20.70;47.60;;;;;;5113097;28;20245;-50
2021/06/03 10:07:27;;;;;;;1999.90;999.90;;;20.80;46.50;;;;;;5113379;28;20208;-50
2021/06/03 10:10:01;;;;;;;1999.90;999.90;;;20.80;46.30;;;;;;5112733;28;20167;-45
2021/06/03 10:12:49;;;;;;;1999.90;999.90;;;20.90;47.70;;;;;;5094637;28;20190;-65
2021/06/03 10:15:25;;;;;;;1999.90;999.90;;;21.00;45.20;;;;;;5112575;28;20254;-47
2021/06/03 10:18:00;;;;;;;1999.90;999.90;;;21.00;46.00;;;;;;5112892;28;20194;-55
2021/06/03 10:20:55;;;;;;;1999.90;999.90;;;21.00;46.30;;;;;;5112973;28;20162;-50
2021/06/03 10:23:25;;;;;;;1999.90;999.90;;;21.10;45.00;;;;;;5112730;28;20195;-52
2021/06/03 10:25:59;;;;;;;1999.90;999.90;;;21.20;43.80;;;;;;5094708;28;20191;-58
2021/06/03 10:28:28;;;;;;;1999.90;999.90;;;21.30;43.80;;;;;;5112969;28;20239;-57
2021/06/03 10:30:57;;;;;;;1999.90;999.90;;;21.40;43.20;;;;;;5112604;28;20175;-56
2021/06/03 10:33:28;;;;;;;1999.90;999.90;;;21.40;44.80;;;;;;5112720;28;20191;-58
2021/06/03 10:35:59;;;;;;;1999.90;999.90;;;21.50;47.90;;;;;;5112819;28;20151;-60
2021/06/03 10:38:26;;;;;;;1999.90;999.90;;;21.60;45.40;;;;;;5112667;28;20151;-60
2021/06/03 10:40:56;;;;;;;1999.90;999.90;;;21.60;43.80;;;;;;5112649;28;20565;-62
2021/06/03 10:43:23;;;;;;;1999.90;999.90;;;21.60;44.20;;;;;;5112554;28;20202;-60
2021/06/03 10:45:51;;;;;;;1999.90;999.90;;;21.80;44.80;;;;;;5094383;28;20171;-58
2021/06/03 10:48:18;;;;;;;1999.90;999.90;;;21.80;45.30;;;;;;5112846;28;20179;-59
2021/06/03 10:50:49;;;;;;;1999.90;999.90;;;21.70;43.00;;;;;;5112662;28;20171;-55
2021/06/03 10:53:25;;;;;;;1999.90;999.90;;;22.00;47.80;;;;;;5112631;28;20598;-54
2021/06/03 10:55:55;;;;;;;1999.90;999.90;;;22.30;43.30;;;;;;5112478;28;20625;-56
2021/06/03 10:58:35;;;;;;;1999.90;999.90;;;22.50;43.30;;;;;;5112581;28;20250;-60
2021/06/03 11:01:11;;;;;;;1999.90;999.90;;;22.30;41.50;;;;;;5112696;28;20166;-56
2021/06/03 11:03:51;;;;;;;1999.90;999.90;;;22.30;42.30;;;;;;5112722;28;20599;-56
2021/06/03 11:06:26;;;;;;;1999.90;999.90;;;22.40;41.00;;;;;;5112444;28;20166;-51
2021/06/03 11:08:56;;;;;;;1999.90;999.90;;;22.40;40.00;;;;;;5112762;28;20154;-49
2021/06/03 11:11:31;;;;;;;1999.90;999.90;;;22.30;40.90;;;;;;5116071;28;20239;-48
2021/06/03 11:13:58;;;;;;;1999.90;999.90;;;22.30;41.90;;;;;;5116403;28;20523;-53
2021/06/03 11:16:34;;;;;;;1999.90;999.90;;;22.60;43.50;;;;;;5116226;28;20164;-52
2021/06/03 11:19:01;;;;;;;1999.90;999.90;;;22.60;42.30;;;;;;5116276;28;20625;-52
2021/06/03 11:21:34;;;;;;;1999.90;999.90;;;22.80;41.10;;;;;;5116162;28;20167;-55
2021/06/03 11:24:10;;;;;;;1999.90;999.90;;;22.90;41.00;;;;;;5116146;28;20202;-53
2021/06/03 11:26:40;;;;;;;1999.90;999.90;;;22.80;38.60;;;;;;5116191;28;20158;-52
2021/06/03 11:29:18;;;;;;;1999.90;999.90;;;23.00;40.20;;;;;;5116224;28;20167;-49
2021/06/03 11:31:49;;;;;;;1999.90;999.90;;;23.10;39.50;;;;;;5115707;28;20174;-51
2021/06/03 11:34:23;;;;;;;1999.90;999.90;;;22.90;38.20;;;;;;5115869;28;20697;-52
2021/06/03 11:37:03;;;;;;;1999.90;999.90;;;23.00;37.60;;;;;;5115708;28;20289;-51
2021/06/03 11:39:33;;;;;;;1999.90;999.90;;;23.10;37.20;;;;;;5115701;28;20166;-49
2021/06/03 11:42:37;;;;;;;1999.90;999.90;;;22.80;39.10;;;;;;5115662;28;20198;-58
2021/06/03 11:45:15;;;;;;;1999.90;999.90;;;22.60;38.10;;;;;;5115775;28;20174;-60
2021/06/03 11:47:42;;;;;;;1999.90;999.90;;;22.70;38.30;;;;;;5115700;28;20238;-55
2021/06/03 11:50:18;;;;;;;1999.90;999.90;;;22.70;39.40;;;;;;5115409;28;20228;-47
2021/06/03 11:52:59;;;;;;;1999.90;999.90;;;22.60;38.80;;;;;;5115300;28;20174;-54
2021/06/03 11:55:49;;;;;;;1999.90;999.90;;;22.70;39.20;;;;;;5115435;28;20507;-58
2021/06/03 11:58:24;;;;;;;1999.90;999.90;;;22.60;39.00;;;;;;5115435;28;20156;-59
2021/06/03 12:01:27;;;;;;;1999.90;999.90;;;22.30;39.40;;;;;;5115447;28;20155;-59
2021/06/03 12:04:12;;;;;;;1999.90;999.90;;;22.40;41.00;;;;;;5115226;28;20167;-57
2021/06/03 12:06:44;;;;;;;1999.90;999.90;;;22.30;39.90;;;;;;5115440;28;20179;-62
2021/06/03 12:09:27;;;;;;;1999.90;999.90;;;22.60;39.70;;;;;;5115307;28;20183;-60
2021/06/03 12:12:05;;;;;;;1999.90;999.90;;;22.60;39.10;;;;;;5114892;28;20324;-60
2021/06/03 12:14:40;;;;;;;1999.90;999.90;;;22.50;40.50;;;;;;5096725;28;20171;-50
2021/06/03 12:17:08;;;;;;;1999.90;999.90;;;22.70;39.40;;;;;;5114543;28;20161;-52